createdAt,value
2023-02-26T00:01:34.052Z,6.97
2023-02-26T00:04:04.079Z,8.20
2023-02-26T00:06:34.233Z,4.40
2023-02-26T00:09:03.862Z,5.07
2023-02-26T00:11:32.238Z,4.33
2023-02-26T00:14:00.586Z,5.37
2023-02-26T00:16:31.046Z,5.17
2023-02-26T00:19:00.930Z,3.53
2023-02-26T00:21:30.607Z,6.60
2023-02-26T00:23:58.731Z,5.93
2023-02-26T00:26:29.167Z,5.43
2023-02-26T00:28:57.772Z,4.33
2023-02-26T00:31:26.390Z,3.97
2023-02-26T00:33:55.823Z,4.33
2023-02-26T00:36:26.410Z,6.00
2023-02-26T00:39:08.022Z,3.63
2023-02-26T00:41:38.845Z,7.23
2023-02-26T00:44:07.288Z,6.17
2023-02-26T00:46:42.726Z,3.23
2023-02-26T00:49:19.712Z,3.73
2023-02-26T00:51:52.654Z,6.33
2023-02-26T00:54:23.093Z,6.60
2023-02-26T00:56:54.925Z,5.60
2023-02-26T00:59:23.803Z,4.73
2023-02-26T01:01:52.845Z,7.07
2023-02-26T01:04:23.634Z,7.63
2023-02-26T01:06:53.809Z,7.57
2023-02-26T01:09:26.921Z,6.50
2023-02-26T01:12:01.436Z,6.40
2023-02-26T01:14:29.832Z,8.13
2023-02-26T01:17:04.572Z,5.20
2023-02-26T01:19:40.604Z,3.90
2023-02-26T01:22:14.043Z,4.30
2023-02-26T01:24:42.481Z,4.10
2023-02-26T01:27:12.158Z,4.30
2023-02-26T01:29:40.330Z,4.90
2023-02-26T01:32:13.683Z,5.83
2023-02-26T01:34:47.964Z,4.83
2023-02-26T01:37:28.692Z,4.50
2023-02-26T01:40:17.112Z,3.47
2023-02-26T01:42:52.051Z,5.50
2023-02-26T01:45:25.024Z,3.37
2023-02-26T01:47:58.250Z,6.27
2023-02-26T01:50:29.917Z,2.87
2023-02-26T01:53:24.267Z,5.63
2023-02-26T01:55:56.436Z,4.10
2023-02-26T01:58:29.168Z,3.20
2023-02-26T02:00:56.991Z,4.97
2023-02-26T02:03:27.873Z,3.80
2023-02-26T02:05:59.579Z,4.70
2023-02-26T02:08:27.579Z,4.03
2023-02-26T02:10:55.725Z,4.40
2023-02-26T02:13:38.951Z,4.30
2023-02-26T02:16:18.742Z,4.63
2023-02-26T02:18:55.151Z,2.30
2023-02-26T02:21:46.284Z,4.13
2023-02-26T02:24:17.816Z,5.63
2023-02-26T02:26:55.773Z,3.03
2023-02-26T02:30:04.677Z,4.43
2023-02-26T02:32:39.354Z,4.83
2023-02-26T02:35:14.245Z,3.83
2023-02-26T02:37:47.752Z,2.93
2023-02-26T02:40:19.280Z,10.23
2023-02-26T02:42:59.739Z,5.33
2023-02-26T02:45:32.435Z,3.20
2023-02-26T02:48:07.343Z,3.43
2023-02-26T02:50:39.325Z,3.60
2023-02-26T02:53:13.833Z,4.47
2023-02-26T02:55:47.526Z,5.00
2023-02-26T02:58:19.421Z,3.60
2023-02-26T03:00:50.877Z,2.17
2023-02-26T03:03:27.223Z,4.70
2023-02-26T03:05:56.260Z,5.43
2023-02-26T03:08:28.201Z,4.93
2023-02-26T03:10:56.195Z,2.63
2023-02-26T03:13:25.757Z,8.30
2023-02-26T03:16:15.822Z,6.27
2023-02-26T03:18:54.783Z,4.83
2023-02-26T03:21:29.877Z,6.23
2023-02-26T03:24:02.723Z,2.60
2023-02-26T03:26:35.522Z,3.60
2023-02-26T03:29:10.604Z,2.13
2023-02-26T03:31:45.209Z,4.53
2023-02-26T03:34:19.769Z,6.20
2023-02-26T03:36:52.710Z,5.17
2023-02-26T03:39:30.382Z,2.33
2023-02-26T03:42:02.977Z,4.47
2023-02-26T03:44:41.152Z,4.97
2023-02-26T03:47:13.759Z,4.07
2023-02-26T03:49:47.082Z,3.63
2023-02-26T03:52:16.193Z,4.37
2023-02-26T03:55:20.346Z,2.53
2023-02-26T03:58:08.419Z,5.13
2023-02-26T04:01:00.470Z,2.53
2023-02-26T04:03:34.514Z,3.77
2023-02-26T04:06:04.875Z,4.40
2023-02-26T04:08:32.960Z,4.27
2023-02-26T04:11:09.062Z,3.00
2023-02-26T04:13:37.416Z,4.57
2023-02-26T04:16:05.959Z,5.07
2023-02-26T04:18:34.590Z,4.67
2023-02-26T04:21:04.565Z,3.50
2023-02-26T04:23:32.842Z,5.40
2023-02-26T04:26:00.795Z,4.50
2023-02-26T04:28:30.136Z,3.33
2023-02-26T04:30:58.199Z,3.60
2023-02-26T04:33:26.891Z,2.40
2023-02-26T04:35:54.775Z,4.13
2023-02-26T04:38:24.127Z,4.80
2023-02-26T04:40:52.280Z,3.20
2023-02-26T04:43:21.084Z,6.47
2023-02-26T04:45:59.917Z,3.87
2023-02-26T04:48:27.792Z,6.33
2023-02-26T04:50:55.803Z,5.97
2023-02-26T04:53:25.010Z,6.17
2023-02-26T04:55:52.772Z,4.07
2023-02-26T04:58:20.803Z,4.30
2023-02-26T05:00:50.061Z,4.97
2023-02-26T05:03:18.634Z,4.43
2023-02-26T05:05:47.229Z,2.67
2023-02-26T05:08:15.853Z,5.53
2023-02-26T05:10:44.973Z,4.57
2023-02-26T05:13:12.806Z,6.30
2023-02-26T05:15:40.687Z,4.17
2023-02-26T05:18:08.611Z,6.33
2023-02-26T05:20:37.258Z,3.10
2023-02-26T05:23:05.564Z,7.67
2023-02-26T05:25:33.493Z,5.70
2023-02-26T05:28:02.776Z,3.90
2023-02-26T05:30:30.828Z,4.10
2023-02-26T05:32:58.661Z,2.80
2023-02-26T05:35:26.508Z,4.40
2023-02-26T05:37:54.312Z,5.07
2023-02-26T05:40:23.077Z,7.13
2023-02-26T05:42:51.929Z,5.03
2023-02-26T05:45:21.067Z,3.33
2023-02-26T05:47:48.834Z,5.70
2023-02-26T05:50:16.613Z,3.97
2023-02-26T05:52:44.411Z,5.20
2023-02-26T05:55:12.361Z,6.20
2023-02-26T05:57:40.195Z,4.03
2023-02-26T06:00:10.196Z,5.23
2023-02-26T06:02:42.025Z,5.33
2023-02-26T06:05:10.632Z,2.40
2023-02-26T06:07:38.575Z,4.77
2023-02-26T06:10:08.619Z,4.13
2023-02-26T06:12:36.620Z,3.70
2023-02-26T06:15:05.420Z,5.13
2023-02-26T06:17:33.205Z,5.03
2023-02-26T06:20:02.970Z,3.90
2023-02-26T06:22:30.852Z,4.13
2023-02-26T06:24:58.695Z,5.77
2023-02-26T06:27:26.716Z,5.47
2023-02-26T06:29:54.616Z,3.63
2023-02-26T06:32:22.587Z,4.97
2023-02-26T06:34:50.383Z,4.80
2023-02-26T06:37:19.554Z,5.00
2023-02-26T06:39:47.349Z,6.13
2023-02-26T06:42:15.136Z,4.77
2023-02-26T06:44:42.935Z,4.60
2023-02-26T06:47:10.746Z,7.07
2023-02-26T06:49:38.482Z,3.53
2023-02-26T06:52:06.551Z,3.70
2023-02-26T06:54:35.808Z,4.47
2023-02-26T06:57:03.663Z,7.00
2023-02-26T06:59:31.982Z,5.50
2023-02-26T07:01:59.818Z,4.27
2023-02-26T07:04:27.648Z,5.70
2023-02-26T07:06:55.382Z,4.77
2023-02-26T07:09:23.259Z,4.03
2023-02-26T07:11:52.350Z,4.07
2023-02-26T07:14:20.227Z,5.63
2023-02-26T07:16:48.074Z,5.20
2023-02-26T07:19:18.137Z,4.40
2023-02-26T07:21:45.923Z,5.63
2023-02-26T07:24:13.718Z,2.93
2023-02-26T07:26:41.612Z,6.03
2023-02-26T07:29:10.968Z,4.10
2023-02-26T07:31:39.257Z,4.20
2023-02-26T07:34:07.257Z,7.70
2023-02-26T07:36:35.076Z,3.07
2023-02-26T07:39:03.092Z,3.63
2023-02-26T07:41:30.864Z,5.00
2023-02-26T07:43:58.668Z,3.40
2023-02-26T07:46:28.244Z,4.30
2023-02-26T07:48:56.232Z,4.23
2023-02-26T07:51:24.695Z,2.77
2023-02-26T07:53:52.792Z,2.23
2023-02-26T07:56:20.553Z,1.97
2023-02-26T07:58:48.830Z,5.13
2023-02-26T08:01:16.670Z,5.37
2023-02-26T08:03:45.828Z,4.80
2023-02-26T08:06:14.215Z,4.60
2023-02-26T08:08:42.018Z,4.73
2023-02-26T08:11:09.860Z,4.17
2023-02-26T08:13:37.700Z,5.37
2023-02-26T08:16:05.848Z,4.37
2023-02-26T08:18:33.676Z,3.63
2023-02-26T08:21:02.864Z,4.50
2023-02-26T08:23:30.617Z,7.43
2023-02-26T08:26:02.467Z,4.13
2023-02-26T08:28:30.641Z,4.63
2023-02-26T08:30:58.597Z,5.57
2023-02-26T08:33:26.973Z,2.50
2023-02-26T08:35:55.773Z,3.97
2023-02-26T08:38:24.870Z,1.70
2023-02-26T08:40:53.384Z,5.90
2023-02-26T08:43:21.380Z,3.80
2023-02-26T08:45:49.685Z,4.47
2023-02-26T08:48:17.368Z,4.50
2023-02-26T08:50:45.130Z,3.60
2023-02-26T08:53:12.966Z,1.97
2023-02-26T08:55:41.998Z,4.23
2023-02-26T08:58:09.681Z,5.70
2023-02-26T09:00:37.670Z,2.87
2023-02-26T09:03:05.377Z,4.33
2023-02-26T09:05:33.114Z,4.87
2023-02-26T09:08:00.790Z,3.20
2023-02-26T09:10:28.939Z,3.07
2023-02-26T09:12:58.009Z,4.60
2023-02-26T09:15:26.080Z,2.90
2023-02-26T09:17:55.676Z,3.37
2023-02-26T09:20:23.579Z,5.27
2023-02-26T09:22:51.454Z,3.87
2023-02-26T09:25:19.431Z,5.50
2023-02-26T09:27:47.316Z,4.77
2023-02-26T09:30:17.285Z,3.83
2023-02-26T09:32:45.067Z,2.77
2023-02-26T09:35:12.848Z,3.80
2023-02-26T09:37:40.613Z,4.53
2023-02-26T09:40:14.176Z,3.70
2023-02-26T09:43:00.791Z,3.83
2023-02-26T09:45:34.322Z,4.63
2023-02-26T09:48:05.339Z,3.40
2023-02-26T09:50:41.712Z,4.63
2023-02-26T09:53:19.532Z,3.70
2023-02-26T09:55:50.219Z,2.67
2023-02-26T09:58:29.930Z,2.30
2023-02-26T10:01:07.047Z,2.27
2023-02-26T10:03:49.179Z,4.10
2023-02-26T10:06:24.459Z,4.37
2023-02-26T10:09:13.733Z,3.27
2023-02-26T10:11:49.627Z,2.97
2023-02-26T10:14:24.232Z,4.33
2023-02-26T10:16:58.161Z,3.90
2023-02-26T10:19:30.908Z,4.20
2023-02-26T10:22:03.585Z,1.83
2023-02-26T10:24:43.443Z,3.10
2023-02-26T10:27:17.112Z,2.73
2023-02-26T10:29:52.875Z,3.93
2023-02-26T10:32:29.652Z,1.27
2023-02-26T10:34:59.715Z,3.63
2023-02-26T10:37:37.459Z,2.63
2023-02-26T10:40:13.927Z,1.53
2023-02-26T10:42:47.765Z,3.17
2023-02-26T10:45:28.291Z,2.47
2023-02-26T10:48:18.020Z,2.53
2023-02-26T10:50:50.410Z,3.23
2023-02-26T10:53:18.501Z,1.27
2023-02-26T10:55:51.572Z,1.73
2023-02-26T10:58:22.238Z,2.07
2023-02-26T11:00:54.336Z,1.90
2023-02-26T11:03:33.518Z,2.70
2023-02-26T11:06:03.714Z,2.50
2023-02-26T11:08:35.045Z,2.00
2023-02-26T11:11:05.658Z,1.63
2023-02-26T11:13:35.734Z,1.10
2023-02-26T11:16:06.625Z,2.90
2023-02-26T11:18:41.027Z,3.13
2023-02-26T11:21:10.522Z,4.38
2023-02-26T11:23:39.895Z,2.70
2023-02-26T11:26:15.774Z,2.75
2023-02-26T11:28:46.068Z,1.42
2023-02-26T11:31:18.530Z,2.95
2023-02-26T11:33:51.662Z,1.75
2023-02-26T11:36:24.517Z,4.63
2023-02-26T11:38:56.311Z,0.98
2023-02-26T11:41:25.160Z,2.72
2023-02-26T11:44:02.007Z,3.33
2023-02-26T11:46:30.464Z,1.33
2023-02-26T11:49:02.446Z,4.20
2023-02-26T11:51:30.972Z,2.37
2023-02-26T11:54:01.479Z,2.27
2023-02-26T11:56:34.155Z,2.60
2023-02-26T11:59:09.115Z,3.07
2023-02-26T12:01:37.941Z,1.65
2023-02-26T12:04:12.241Z,1.85
2023-02-26T12:06:40.683Z,1.83
2023-02-26T12:09:12.780Z,3.92
2023-02-26T12:11:52.560Z,2.78
2023-02-26T12:14:40.379Z,1.38
2023-02-26T12:17:22.859Z,2.35
2023-02-26T12:19:58.700Z,1.30
2023-02-26T12:22:46.556Z,3.15
2023-02-26T12:25:29.802Z,2.93
2023-02-26T12:28:36.393Z,1.60
2023-02-26T12:31:30.893Z,2.78
2023-02-26T12:34:09.541Z,2.15
2023-02-26T12:36:56.272Z,2.38
2023-02-26T12:39:44.149Z,1.80
2023-02-26T12:42:25.921Z,1.92
2023-02-26T12:45:13.498Z,1.00
2023-02-26T12:47:52.412Z,2.35
2023-02-26T12:50:33.794Z,1.30
2023-02-26T12:53:39.269Z,1.30
2023-02-26T12:56:39.888Z,1.27
2023-02-26T12:59:21.158Z,1.52
2023-02-26T13:02:32.323Z,2.15
2023-02-26T13:05:24.696Z,1.00
2023-02-26T13:08:04.003Z,2.33
2023-02-26T13:10:45.679Z,2.30
2023-02-26T13:13:31.289Z,0.73
2023-02-26T13:16:11.385Z,0.90
2023-02-26T13:18:47.861Z,1.00
2023-02-26T13:21:20.727Z,0.60
2023-02-26T13:23:53.698Z,3.13
2023-02-26T13:26:24.480Z,1.67
2023-02-26T13:28:57.478Z,1.48
2023-02-26T13:31:32.218Z,2.10
2023-02-26T13:34:05.817Z,1.10
2023-02-26T13:36:35.373Z,1.07
2023-02-26T13:39:21.578Z,1.07
2023-02-26T13:42:03.092Z,1.20
2023-02-26T13:44:38.759Z,1.53
2023-02-26T13:47:32.728Z,1.17
2023-02-26T13:50:18.078Z,0.95
2023-02-26T13:52:52.963Z,1.33
2023-02-26T13:55:41.579Z,2.90
2023-02-26T13:58:31.464Z,1.58
2023-02-26T14:01:05.105Z,1.70
2023-02-26T14:03:36.556Z,1.27
2023-02-26T14:06:24.779Z,2.17
2023-02-26T14:08:56.591Z,0.98
2023-02-26T14:11:46.978Z,1.65
2023-02-26T14:14:30.649Z,1.42
2023-02-26T14:17:20.942Z,1.63
2023-02-26T14:20:20.445Z,2.53
2023-02-26T14:22:51.347Z,2.60
2023-02-26T14:25:28.013Z,1.02
2023-02-26T14:28:21.351Z,2.33
2023-02-26T14:30:53.664Z,2.55
2023-02-26T14:33:30.020Z,2.92
2023-02-26T14:35:59.646Z,2.40
2023-02-26T14:38:30.785Z,1.73
2023-02-26T14:41:04.382Z,2.05
2023-02-26T14:43:37.333Z,1.05
2023-02-26T14:46:09.191Z,2.05
2023-02-26T14:48:37.744Z,2.17
2023-02-26T14:51:19.140Z,1.85
2023-02-26T14:54:07.859Z,1.02
2023-02-26T14:56:53.288Z,3.47
2023-02-26T14:59:44.161Z,2.13
2023-02-26T15:02:26.240Z,2.47
2023-02-26T15:05:15.447Z,2.17
2023-02-26T15:07:55.559Z,2.17
2023-02-26T15:10:38.458Z,1.95
2023-02-26T15:13:33.581Z,2.22
2023-02-26T15:16:12.995Z,1.50
2023-02-26T15:19:15.472Z,2.60
2023-02-26T15:21:54.010Z,1.45
2023-02-26T15:24:21.880Z,0.98
2023-02-26T15:26:54.292Z,1.10
2023-02-26T15:29:29.027Z,3.45
2023-02-26T15:32:01.224Z,2.13
2023-02-26T15:34:32.046Z,1.67
2023-02-26T15:37:00.607Z,1.00
2023-02-26T15:39:28.331Z,2.70
2023-02-26T15:41:57.612Z,2.22
2023-02-26T15:44:28.566Z,1.15
2023-02-26T15:46:59.476Z,3.90
2023-02-26T15:49:31.320Z,2.53
2023-02-26T15:52:02.044Z,1.45
2023-02-26T15:54:41.610Z,2.77
2023-02-26T15:57:10.438Z,3.40
2023-02-26T15:59:43.308Z,2.13
2023-02-26T16:02:13.650Z,1.00
2023-02-26T16:04:43.910Z,1.73
2023-02-26T16:07:13.050Z,1.93
2023-02-26T16:09:42.957Z,1.90
2023-02-26T16:12:16.257Z,2.73
2023-02-26T16:14:48.359Z,2.40
2023-02-26T16:17:24.924Z,2.30
2023-02-26T16:19:56.841Z,1.73
2023-02-26T16:22:28.733Z,3.80
2023-02-26T16:25:00.402Z,2.30
2023-02-26T16:27:30.797Z,2.90
2023-02-26T16:30:00.836Z,1.40
2023-02-26T16:32:31.004Z,2.47
2023-02-26T16:35:08.772Z,1.83
2023-02-26T16:37:37.911Z,2.13
2023-02-26T16:40:18.892Z,2.30
2023-02-26T16:42:53.499Z,3.07
2023-02-26T16:45:26.827Z,2.23
2023-02-26T16:47:57.912Z,3.67
2023-02-26T16:50:30.172Z,2.97
2023-02-26T16:53:02.314Z,3.70
2023-02-26T16:55:32.565Z,3.40
2023-02-26T16:58:04.576Z,3.63
2023-02-26T17:00:36.088Z,3.00
2023-02-26T17:03:11.143Z,5.40
2023-02-26T17:05:43.577Z,1.90
2023-02-26T17:08:17.666Z,2.87
2023-02-26T17:10:49.575Z,4.27
2023-02-26T17:13:19.245Z,2.70
2023-02-26T17:15:49.181Z,2.83
2023-02-26T17:18:17.617Z,2.17
2023-02-26T17:20:47.751Z,3.33
2023-02-26T17:23:18.249Z,3.73
2023-02-26T17:25:50.187Z,2.27
2023-02-26T17:28:23.836Z,3.57
2023-02-26T17:30:51.831Z,3.43
2023-02-26T17:33:20.632Z,1.80
2023-02-26T17:35:50.489Z,1.47
2023-02-26T17:38:18.457Z,2.87
2023-02-26T17:40:48.633Z,1.60
2023-02-26T17:43:16.693Z,2.83
2023-02-26T17:45:44.495Z,2.30
2023-02-26T17:48:14.608Z,2.50
2023-02-26T17:50:47.001Z,3.43
2023-02-26T17:53:17.232Z,4.97
2023-02-26T17:55:46.417Z,2.37
2023-02-26T17:58:17.108Z,4.20
2023-02-26T18:00:49.520Z,4.83
2023-02-26T18:03:17.879Z,3.00
2023-02-26T18:05:45.997Z,3.13
2023-02-26T18:08:22.010Z,3.27
2023-02-26T18:10:49.972Z,3.20
2023-02-26T18:13:18.078Z,3.27
2023-02-26T18:15:46.449Z,3.33
2023-02-26T18:18:15.190Z,3.67
2023-02-26T18:20:43.947Z,5.30
2023-02-26T18:23:13.815Z,4.37
2023-02-26T18:25:44.518Z,3.10
2023-02-26T18:28:16.955Z,3.33
2023-02-26T18:30:45.358Z,4.10
2023-02-26T18:33:16.896Z,2.73
2023-02-26T18:35:47.195Z,4.17
2023-02-26T18:38:16.385Z,3.87
2023-02-26T18:40:46.608Z,8.73
2023-02-26T18:43:14.546Z,3.30
2023-02-26T18:45:43.640Z,3.80
2023-02-26T18:48:12.706Z,3.97
2023-02-26T18:50:40.686Z,5.43
2023-02-26T18:53:08.627Z,5.07
2023-02-26T18:55:37.343Z,4.20
2023-02-26T18:58:06.724Z,3.73
2023-02-26T19:00:35.349Z,4.13
2023-02-26T19:03:03.371Z,4.27
2023-02-26T19:05:31.213Z,4.47
2023-02-26T19:07:59.749Z,3.97
2023-02-26T19:10:29.471Z,4.83
2023-02-26T19:12:57.416Z,3.97
2023-02-26T19:15:26.950Z,4.50
2023-02-26T19:17:54.886Z,3.63
2023-02-26T19:20:22.976Z,3.00
2023-02-26T19:22:50.888Z,3.07
2023-02-26T19:25:24.394Z,3.03
2023-02-26T19:27:53.447Z,5.33
2023-02-26T19:30:21.855Z,3.93
2023-02-26T19:32:51.507Z,2.63
2023-02-26T19:35:19.645Z,2.37
2023-02-26T19:37:47.731Z,4.07
2023-02-26T19:40:17.254Z,3.20
2023-02-26T19:42:45.524Z,3.13
2023-02-26T19:45:14.240Z,2.60
2023-02-26T19:47:42.705Z,5.90
2023-02-26T19:50:14.024Z,3.10
2023-02-26T19:52:42.621Z,3.77
2023-02-26T19:55:11.478Z,3.13
2023-02-26T19:57:39.388Z,2.37
2023-02-26T20:00:08.598Z,3.50
2023-02-26T20:02:42.936Z,2.73
2023-02-26T20:05:16.864Z,2.37
2023-02-26T20:07:45.636Z,3.57
2023-02-26T20:10:15.643Z,3.40
2023-02-26T20:12:43.659Z,2.23
2023-02-26T20:15:12.538Z,3.50
2023-02-26T20:17:40.401Z,4.00
2023-02-26T20:20:09.666Z,2.13
2023-02-26T20:22:38.864Z,3.30
2023-02-26T20:25:07.221Z,3.53
2023-02-26T20:27:36.358Z,2.97
2023-02-26T20:30:04.903Z,3.70
2023-02-26T20:32:32.981Z,4.57
2023-02-26T20:35:01.134Z,4.90
2023-02-26T20:37:28.866Z,6.43
2023-02-26T20:39:58.117Z,4.10
2023-02-26T20:42:25.885Z,2.73
2023-02-26T20:44:53.619Z,4.60
2023-02-26T20:47:21.617Z,3.03
2023-02-26T20:49:49.583Z,3.30
2023-02-26T20:52:17.878Z,2.80
2023-02-26T20:54:45.909Z,4.00
2023-02-26T20:57:15.769Z,3.17
2023-02-26T20:59:43.544Z,3.50
2023-02-26T21:02:12.972Z,6.50
2023-02-26T21:04:40.860Z,4.73
2023-02-26T21:07:17.504Z,4.70
2023-02-26T21:09:48.051Z,5.23
2023-02-26T21:12:17.930Z,9.77
2023-02-26T21:14:46.016Z,5.63
2023-02-26T21:17:13.847Z,4.40
2023-02-26T21:19:41.817Z,4.60
2023-02-26T21:22:09.765Z,5.70
2023-02-26T21:24:37.547Z,3.83
2023-02-26T21:27:05.487Z,4.80
2023-02-26T21:29:34.665Z,6.07
2023-02-26T21:32:03.687Z,5.07
2023-02-26T21:34:34.844Z,5.73
2023-02-26T21:37:03.128Z,3.97
2023-02-26T21:39:32.367Z,4.30
2023-02-26T21:42:00.634Z,5.00
2023-02-26T21:44:28.606Z,4.93
2023-02-26T21:46:58.258Z,6.33
2023-02-26T21:49:26.106Z,3.53
2023-02-26T21:51:54.304Z,5.23
2023-02-26T21:54:22.409Z,5.37
2023-02-26T21:56:50.238Z,5.40
2023-02-26T21:59:18.092Z,6.07
2023-02-26T22:01:45.971Z,6.30
2023-02-26T22:04:15.226Z,5.53
2023-02-26T22:06:44.047Z,4.80
2023-02-26T22:09:11.860Z,4.40
2023-02-26T22:11:39.678Z,6.03
2023-02-26T22:14:07.624Z,5.43
2023-02-26T22:16:35.518Z,9.27
2023-02-26T22:19:03.306Z,8.97
2023-02-26T22:21:32.396Z,6.17
2023-02-26T22:24:02.015Z,7.13
2023-02-26T22:26:30.143Z,6.73
2023-02-26T22:29:00.557Z,7.33
2023-02-26T22:31:29.193Z,5.07
2023-02-26T22:33:57.498Z,6.53
2023-02-26T22:36:25.306Z,5.03
2023-02-26T22:38:54.499Z,5.80
2023-02-26T22:41:22.480Z,6.57
2023-02-26T22:43:53.754Z,6.03
2023-02-26T22:46:24.276Z,6.70
2023-02-26T22:48:52.649Z,5.80
2023-02-26T22:51:20.453Z,5.27
2023-02-26T22:53:49.058Z,5.57
2023-02-26T22:56:18.350Z,5.43
2023-02-26T22:58:46.147Z,6.47
2023-02-26T23:01:13.971Z,8.40
2023-02-26T23:03:41.873Z,8.53
2023-02-26T23:06:09.856Z,10.77
2023-02-26T23:08:37.728Z,10.53
2023-02-26T23:11:06.943Z,10.33
2023-02-26T23:13:38.027Z,14.30
2023-02-26T23:16:09.690Z,11.40
2023-02-26T23:18:39.245Z,15.37
2023-02-26T23:21:08.767Z,23.13
2023-02-26T23:23:36.542Z,21.37
2023-02-26T23:26:04.699Z,23.17
2023-02-26T23:28:32.449Z,19.67
2023-02-26T23:31:01.657Z,24.27
2023-02-26T23:33:29.619Z,19.60
2023-02-26T23:35:57.506Z,15.37
2023-02-26T23:38:25.306Z,15.90
2023-02-26T23:40:53.083Z,16.30
2023-02-26T23:43:20.949Z,10.73
2023-02-26T23:45:48.769Z,8.33
2023-02-26T23:48:17.933Z,10.00
2023-02-26T23:50:45.691Z,10.33
2023-02-26T23:53:13.478Z,7.77
2023-02-26T23:55:41.324Z,9.17
2023-02-26T23:58:09.087Z,8.40
